createdAt,value
2022-10-23T00:02:55.871Z,100.00
2022-10-23T00:08:01.358Z,100.00
2022-10-23T00:13:05.299Z,100.00
2022-10-23T00:18:10.689Z,100.00
2022-10-23T00:23:14.626Z,100.00
2022-10-23T00:28:18.710Z,100.00
2022-10-23T00:33:24.114Z,100.00
2022-10-23T00:38:28.286Z,100.00
2022-10-23T00:43:33.219Z,100.00
2022-10-23T00:48:38.765Z,100.00
2022-10-23T00:53:44.685Z,100.00
2022-10-23T00:58:48.658Z,100.00
2022-10-23T01:03:54.394Z,100.00
2022-10-23T01:09:04.449Z,100.00
2022-10-23T01:14:18.759Z,100.00
2022-10-23T01:19:38.539Z,100.00
2022-10-23T01:24:50.774Z,100.00
2022-10-23T01:30:07.162Z,100.00
2022-10-23T01:35:21.038Z,100.00
2022-10-23T01:40:36.811Z,100.00
2022-10-23T01:45:44.825Z,100.00
2022-10-23T01:50:56.743Z,100.00
2022-10-23T01:56:04.186Z,100.00
2022-10-23T02:01:12.743Z,100.00
2022-10-23T02:06:25.364Z,100.00
2022-10-23T02:11:29.665Z,100.00
2022-10-23T02:16:41.180Z,100.00
2022-10-23T02:21:54.035Z,100.00
2022-10-23T02:27:02.410Z,100.00
2022-10-23T02:32:12.577Z,100.00
2022-10-23T02:37:18.023Z,100.00
2022-10-23T02:42:27.817Z,100.00
2022-10-23T02:47:46.978Z,100.00
2022-10-23T02:52:59.822Z,100.00
2022-10-23T02:58:10.571Z,100.00
2022-10-23T03:03:25.774Z,100.00
2022-10-23T03:08:31.232Z,100.00
2022-10-23T03:13:35.440Z,100.00
2022-10-23T03:18:40.805Z,100.00
2022-10-23T03:23:44.929Z,100.00
2022-10-23T03:28:54.766Z,100.00
2022-10-23T03:34:04.098Z,100.00
2022-10-23T03:39:10.346Z,100.00
2022-10-23T03:44:14.484Z,100.00
2022-10-23T03:49:23.374Z,100.00
2022-10-23T03:54:29.970Z,100.00
2022-10-23T03:59:34.089Z,100.00
2022-10-23T04:04:39.538Z,100.00
2022-10-23T04:09:43.453Z,100.00
2022-10-23T04:14:52.585Z,100.00
2022-10-23T04:19:58.066Z,100.00
2022-10-23T04:25:01.978Z,100.00
2022-10-23T04:30:09.036Z,100.00
2022-10-23T04:35:14.351Z,100.00
2022-10-23T04:40:18.471Z,100.00
2022-10-23T04:45:22.789Z,100.00
2022-10-23T04:50:28.269Z,100.00
2022-10-23T04:56:01.804Z,100.00
2022-10-23T05:01:24.995Z,100.00
2022-10-23T05:06:30.548Z,100.00
2022-10-23T05:11:57.223Z,100.00
2022-10-23T05:17:04.179Z,100.00
2022-10-23T05:22:11.693Z,100.00
2022-10-23T05:27:28.455Z,100.00
2022-10-23T05:32:34.688Z,100.00
2022-10-23T05:37:44.844Z,100.00
2022-10-23T05:42:55.209Z,100.00
2022-10-23T05:48:22.240Z,100.00
2022-10-23T05:53:56.100Z,100.00
2022-10-23T05:59:32.230Z,100.00
2022-10-23T06:04:55.824Z,100.00
2022-10-23T06:10:07.993Z,100.00
2022-10-23T06:15:17.546Z,100.00
2022-10-23T06:20:47.635Z,100.00
2022-10-23T06:26:02.200Z,100.00
2022-10-23T06:31:21.802Z,100.00
2022-10-23T06:36:28.870Z,100.00
2022-10-23T06:41:45.463Z,99.45
2022-10-23T06:47:10.679Z,98.11
2022-10-23T06:52:47.833Z,91.65
2022-10-23T06:57:56.444Z,87.07
2022-10-23T07:03:00.532Z,82.66
2022-10-23T07:08:06.877Z,83.58
2022-10-23T07:13:18.507Z,79.39
2022-10-23T07:18:35.872Z,80.00
2022-10-23T07:23:59.400Z,78.49
2022-10-23T07:29:05.387Z,78.70
2022-10-23T07:34:11.401Z,72.39
2022-10-23T07:39:16.870Z,72.35
2022-10-23T07:44:28.517Z,70.79
2022-10-23T07:49:33.065Z,66.63
2022-10-23T07:54:42.555Z,63.36
2022-10-23T08:00:00.320Z,61.75
2022-10-23T08:05:04.489Z,55.11
2022-10-23T08:10:15.322Z,53.98
2022-10-23T08:15:22.720Z,53.87
2022-10-23T08:20:40.113Z,49.92
2022-10-23T08:25:44.541Z,49.12
2022-10-23T08:30:51.191Z,51.69
2022-10-23T08:35:55.671Z,53.33
2022-10-23T08:41:07.977Z,49.19
2022-10-23T08:46:32.983Z,51.92
2022-10-23T08:51:59.149Z,54.09
2022-10-23T08:57:11.707Z,53.36
2022-10-23T09:02:22.737Z,46.24
2022-10-23T09:07:40.957Z,47.73
2022-10-23T09:12:45.179Z,48.68
2022-10-23T09:17:58.795Z,43.88
2022-10-23T09:23:05.390Z,46.78
2022-10-23T09:28:20.266Z,43.21
2022-10-23T09:33:27.255Z,44.21
2022-10-23T09:38:33.478Z,42.32
2022-10-23T09:43:37.450Z,40.93
2022-10-23T09:48:45.086Z,41.77
2022-10-23T09:53:52.713Z,42.03
2022-10-23T09:58:59.870Z,38.51
2022-10-23T10:04:05.384Z,39.69
2022-10-23T10:09:13.783Z,38.56
2022-10-23T10:14:36.904Z,38.77
2022-10-23T10:19:57.474Z,39.10
2022-10-23T10:25:10.017Z,38.64
2022-10-23T10:30:19.695Z,38.03
2022-10-23T10:35:41.892Z,39.98
2022-10-23T10:41:01.945Z,38.21
2022-10-23T10:46:13.553Z,39.54
2022-10-23T10:51:26.009Z,35.37
2022-10-23T10:56:32.874Z,35.81
2022-10-23T11:01:39.344Z,34.84
2022-10-23T11:06:50.246Z,32.69
2022-10-23T11:11:54.404Z,35.52
2022-10-23T11:17:03.517Z,35.99
2022-10-23T11:22:13.875Z,33.02
2022-10-23T11:27:44.558Z,35.78
2022-10-23T11:33:22.227Z,34.00
2022-10-23T11:38:30.982Z,34.27
2022-10-23T11:43:48.699Z,35.05
2022-10-23T11:48:53.894Z,33.90
2022-10-23T11:54:24.486Z,34.06
2022-10-23T11:59:32.839Z,33.43
2022-10-23T12:04:42.383Z,34.08
2022-10-23T12:09:55.157Z,36.94
2022-10-23T12:15:20.030Z,33.81
2022-10-23T12:20:49.432Z,34.88
2022-10-23T12:26:13.226Z,34.84
2022-10-23T12:31:31.802Z,39.71
2022-10-23T12:37:02.546Z,38.76
2022-10-23T12:42:17.038Z,38.97
2022-10-23T12:47:21.525Z,37.75
2022-10-23T12:52:25.729Z,37.94
2022-10-23T12:57:31.371Z,38.25
2022-10-23T13:02:35.464Z,38.63
2022-10-23T13:07:46.429Z,37.44
2022-10-23T13:12:57.780Z,38.96
2022-10-23T13:18:03.668Z,38.14
2022-10-23T13:23:13.479Z,38.01
2022-10-23T13:28:25.330Z,38.90
2022-10-23T13:33:34.121Z,38.32
2022-10-23T13:38:39.723Z,38.22
2022-10-23T13:43:49.754Z,38.80
2022-10-23T13:48:54.026Z,37.87
2022-10-23T13:53:58.953Z,38.29
2022-10-23T13:59:04.333Z,37.33
2022-10-23T14:04:09.531Z,38.07
2022-10-23T14:09:15.906Z,37.61
2022-10-23T14:14:21.274Z,38.25
2022-10-23T14:19:25.330Z,39.09
2022-10-23T14:24:29.290Z,38.62
2022-10-23T14:29:34.694Z,40.95
2022-10-23T14:34:42.180Z,40.70
2022-10-23T14:39:49.755Z,42.11
2022-10-23T14:44:55.630Z,42.94
2022-10-23T14:49:59.570Z,43.67
2022-10-23T14:55:03.466Z,45.77
2022-10-23T15:00:10.124Z,51.37
2022-10-23T15:05:14.066Z,49.94
2022-10-23T15:15:28.212Z,52.46
2022-10-23T15:20:32.197Z,51.45
2022-10-23T15:25:36.106Z,52.90
2022-10-23T15:30:43.480Z,54.24
2022-10-23T15:35:47.344Z,59.12
2022-10-23T15:40:51.365Z,61.82
2022-10-23T15:45:56.775Z,73.97
2022-10-23T15:51:00.737Z,83.24
2022-10-23T15:56:05.191Z,83.76
2022-10-23T16:01:10.612Z,82.77
2022-10-23T16:06:16.794Z,83.33
2022-10-23T16:11:22.390Z,83.69
2022-10-23T16:16:29.130Z,86.41
2022-10-23T16:21:36.135Z,92.42
2022-10-23T16:26:40.263Z,87.75
2022-10-23T16:31:46.769Z,94.80
2022-10-23T16:36:51.026Z,95.53
2022-10-23T16:41:54.962Z,100.00
2022-10-23T16:47:03.528Z,100.00
2022-10-23T16:52:07.437Z,100.00
2022-10-23T16:57:11.411Z,100.00
2022-10-23T17:02:16.839Z,100.00
2022-10-23T17:12:26.383Z,100.00
2022-10-23T17:17:31.859Z,100.00
2022-10-23T17:22:36.651Z,100.00
2022-10-23T17:27:40.976Z,100.00
2022-10-23T17:32:47.460Z,100.00
2022-10-23T17:37:51.611Z,100.00
2022-10-23T17:42:55.498Z,100.00
2022-10-23T17:48:00.770Z,100.00
2022-10-23T17:53:04.826Z,100.00
2022-10-23T17:58:09.083Z,100.00
2022-10-23T18:03:17.741Z,100.00
2022-10-23T18:08:23.739Z,100.00
2022-10-23T18:13:27.923Z,100.00
2022-10-23T18:18:33.773Z,100.00
2022-10-23T18:23:38.283Z,100.00
2022-10-23T18:28:42.221Z,100.00
2022-10-23T18:33:47.818Z,100.00
2022-10-23T18:38:51.988Z,100.00
2022-10-23T18:43:56.063Z,100.00
2022-10-23T18:49:01.379Z,100.00
2022-10-23T18:54:08.085Z,100.00
2022-10-23T18:59:18.736Z,100.00
2022-10-23T19:04:24.012Z,100.00
2022-10-23T19:09:27.926Z,100.00
2022-10-23T19:14:31.796Z,100.00
2022-10-23T19:19:41.594Z,100.00
2022-10-23T19:24:50.382Z,100.00
2022-10-23T19:29:56.358Z,100.00
2022-10-23T19:35:01.667Z,100.00
2022-10-23T19:40:06.858Z,100.00
2022-10-23T19:45:12.965Z,100.00
2022-10-23T19:50:18.768Z,100.00
2022-10-23T19:55:22.704Z,100.00
2022-10-23T20:00:28.171Z,100.00
2022-10-23T20:05:33.752Z,100.00
2022-10-23T20:10:42.458Z,100.00
2022-10-23T20:15:46.345Z,100.00
2022-10-23T20:20:51.744Z,100.00
2022-10-23T20:25:55.733Z,100.00
2022-10-23T20:31:00.841Z,100.00
2022-10-23T20:36:08.263Z,100.00
2022-10-23T20:41:12.241Z,100.00
2022-10-23T20:46:16.357Z,100.00
2022-10-23T20:51:23.657Z,100.00
2022-10-23T20:56:31.837Z,100.00
2022-10-23T21:01:36.357Z,100.00
2022-10-23T21:07:04.426Z,100.00
2022-10-23T21:12:07.547Z,100.00
2022-10-23T21:17:16.665Z,100.00
2022-10-23T21:22:22.011Z,100.00
2022-10-23T21:27:26.104Z,100.00
2022-10-23T21:32:30.026Z,100.00
2022-10-23T21:37:35.410Z,100.00
2022-10-23T21:42:39.327Z,100.00
2022-10-23T21:47:43.597Z,100.00
2022-10-23T21:52:53.120Z,100.00
2022-10-23T21:57:57.301Z,100.00
2022-10-23T22:03:01.184Z,100.00
2022-10-23T22:08:06.959Z,100.00
2022-10-23T22:13:10.905Z,100.00
2022-10-23T22:18:14.786Z,100.00
2022-10-23T22:23:20.190Z,100.00
2022-10-23T22:28:24.363Z,100.00
2022-10-23T22:33:28.458Z,100.00
2022-10-23T22:38:33.893Z,100.00
2022-10-23T22:43:38.387Z,100.00
2022-10-23T22:48:42.746Z,100.00
2022-10-23T22:53:48.685Z,100.00
2022-10-23T22:58:53.238Z,100.00
2022-10-23T23:04:04.440Z,100.00
2022-10-23T23:09:22.758Z,100.00
2022-10-23T23:14:26.795Z,100.00
2022-10-23T23:19:30.770Z,100.00
2022-10-23T23:24:36.392Z,100.00
2022-10-23T23:29:40.322Z,100.00
2022-10-23T23:34:44.306Z,100.00
2022-10-23T23:39:49.613Z,100.00
2022-10-23T23:45:02.557Z,100.00
2022-10-23T23:50:14.677Z,100.00
2022-10-23T23:55:20.274Z,100.00
